ADDS METAR Data INFO
IDs: Format: Raw Decoded Include TAF

Data at: 1414 UTC 12 Dec 2017

KBAM 121355Z AUTO 28004KT 10SM CLR M10/M13 A3056 RMK AO1
KBAM 121335Z AUTO 29004KT 10SM CLR M11/M13 A3056 RMK AO1
KBAM 121315Z AUTO 00000KT 10SM CLR M10/M12 A3056 RMK AO1
KBAM 121255Z AUTO 00000KT 10SM CLR M10/M12 A3055 RMK AO1
KBAM 121235Z AUTO 25006KT 10SM CLR M08/M11 A3055 RMK AO1
KBAM 121215Z AUTO 35004KT 10SM CLR M10/M12 A3055 RMK AO1
KBAM 121155Z AUTO 36003KT 10SM CLR M11/M12 A3055 RMK AO1
KBAM 121135Z AUTO 06004KT 10SM CLR M12/M15 A3055 RMK AO1
KBAM 121115Z AUTO 12003KT 10SM CLR M12/M15 A3056 RMK AO1
KBAM 121055Z AUTO 19004KT 10SM CLR M10/M12 A3056 RMK AO1
KBAM 121035Z AUTO 21005KT 10SM CLR M11/M13 A3056 RMK AO1
KBAM 121015Z AUTO 21004KT 10SM CLR M11/M12 A3057 RMK AO1
KBAM 120955Z AUTO 15004KT 10SM CLR M11/M12 A3057 RMK AO1
KBAM 120935Z AUTO 10005KT 10SM CLR M12/M15 A3056 RMK AO1
KBAM 120915Z AUTO 21005KT 10SM CLR M10/M12 A3056 RMK AO1
KBAM 120855Z AUTO 26003KT 10SM CLR M11/M13 A3056 RMK AO1
KBAM 120835Z AUTO 18003KT 10SM CLR M11/M12 A3056 RMK AO1
KBAM 120815Z AUTO 16003KT 10SM CLR M11/M13 A3056 RMK AO1
KBAM 120755Z AUTO 00000KT 10SM CLR M11/M13 A3056 RMK AO1
KBAM 120735Z AUTO 19003KT 10SM CLR M10/M12 A3056 RMK AO1
KBAM 120715Z AUTO 00000KT 10SM CLR M11/M12 A3056 RMK AO1
KBAM 120655Z AUTO 22003KT 10SM CLR M10/M12 A3056 RMK AO1
KBAM 120635Z AUTO 23003KT 10SM CLR M10/M11 A3056 RMK AO1
KBAM 120615Z AUTO 21003KT 10SM CLR M10/M12 A3056 RMK AO1
KBAM 120555Z AUTO 00000KT 10SM CLR M10/M12 A3055 RMK AO1
KBAM 120535Z AUTO 00000KT 10SM CLR M09/M11 A3054 RMK AO1
KBAM 120515Z AUTO 00000KT 10SM CLR M08/M10 A3054 RMK AO1
KBAM 120455Z AUTO 16004KT 10SM CLR M08/M10 A3054 RMK AO1
KBAM 120435Z AUTO 17005KT 10SM CLR M08/M11 A3054 RMK AO1
KBAM 120415Z AUTO 22003KT 10SM CLR M07/M10 A3055 RMK AO1
KBAM 120355Z AUTO 19003KT 10SM CLR M07/M10 A3054 RMK AO1
KBAM 120335Z AUTO 13003KT 10SM CLR M07/M10 A3054 RMK AO1
KBAM 120315Z AUTO 16005KT 10SM CLR M06/M08 A3053 RMK AO1
KBAM 120255Z AUTO 14003KT 10SM CLR M06/M08 A3052 RMK AO1
KBAM 120235Z AUTO 00000KT 10SM CLR M05/M08 A3052 RMK AO1
KBAM 120215Z AUTO 17003KT 10SM CLR M04/M08 A3052 RMK AO1
KBAM 120155Z AUTO 15005KT 10SM CLR M04/M07 A3052 RMK AO1
KBAM 120135Z AUTO 15006KT 10SM CLR M03/M07 A3052 RMK AO1
KBAM 120115Z AUTO 13003KT 10SM CLR M01/M07 A3052 RMK AO1
KBAM 120055Z AUTO 00000KT 10SM CLR 00/M07 A3051 RMK AO1
KBAM 120035Z AUTO 00000KT 10SM CLR 02/M06 A3050 RMK AO1
KBAM 120015Z AUTO 33003KT 10SM CLR 03/M06 A3050 RMK AO1
KBAM 112355Z AUTO 00000KT 10SM CLR 06/M06 A3050 RMK AO1
KBAM 112335Z AUTO 00000KT 10SM CLR 07/M06 A3050 RMK AO1
KBAM 112315Z AUTO 00000KT 10SM CLR 07/M07 A3050 RMK AO1
KBAM 112255Z AUTO 00000KT 10SM CLR 07/M07 A3050 RMK AO1
KBAM 112235Z AUTO 00000KT 10SM CLR 07/M07 A3050 RMK AO1
KBAM 112215Z AUTO 00000KT 10SM CLR 07/M07 A3050 RMK AO1
KBAM 112155Z AUTO 00000KT 10SM CLR 07/M07 A3050 RMK AO1
KBAM 112135Z AUTO 09003KT 10SM CLR 06/M06 A3050 RMK AO1
KBAM 112115Z AUTO 00000KT 10SM CLR 06/M06 A3051 RMK AO1
KBAM 112055Z AUTO 00000KT 10SM CLR 06/M07 A3051 RMK AO1
KBAM 112035Z AUTO 00000KT 10SM CLR 05/M06 A3051 RMK AO1
KBAM 112015Z AUTO 00000KT 10SM CLR 04/M06 A3052 RMK AO1
KBAM 111955Z AUTO 00000KT 10SM CLR 03/M07 A3053 RMK AO1
KBAM 111935Z AUTO 05003KT 10SM CLR 03/M07 A3054 RMK AO1
KBAM 111915Z AUTO 00000KT 10SM CLR 02/M06 A3054 RMK AO1
KBAM 111855Z AUTO 00000KT 10SM CLR 01/M07 A3055 RMK AO1
KBAM 111835Z AUTO 00000KT 10SM CLR 00/M06 A3056 RMK AO1
KBAM 111815Z AUTO 00000KT 10SM CLR M01/M07 A3057 RMK AO1
KBAM 111755Z AUTO 00000KT 10SM CLR M01/M07 A3057 RMK AO1
KBAM 111735Z AUTO 00000KT 10SM CLR M02/M07 A3057 RMK AO1
KBAM 111715Z AUTO 00000KT 10SM CLR M04/M07 A3056 RMK AO1
KBAM 111655Z AUTO 21003KT 10SM CLR M06/M08 A3056 RMK AO1
KBAM 111635Z AUTO 00000KT 10SM CLR M08/M10 A3056 RMK AO1
KBAM 111615Z AUTO 00000KT 10SM CLR M09/M11 A3056 RMK AO1
KBAM 111555Z AUTO 00000KT 10SM CLR M11/M13 A3056 RMK AO1
KBAM 111535Z AUTO 00000KT 10SM CLR M13/M15 A3056 RMK AO1
KBAM 111515Z AUTO 13003KT 10SM CLR M13/M16 A3055 RMK AO1
KBAM 111455Z AUTO 00000KT 10SM CLR M12/M14 A3055 RMK AO1
KBAM 111435Z AUTO 20007KT 10SM CLR M14/M16 A3054 RMK AO1
KBAM 111415Z AUTO 00000KT 10SM CLR M13/M16 A3054 RMK AO1
KBAM 111355Z AUTO 00000KT 10SM CLR M12/M15 A3053 RMK AO1
KBAM 111335Z AUTO 21003KT 10SM CLR M11/M13 A3053 RMK AO1
KBAM 111315Z AUTO 23005KT 10SM CLR M11/M13 A3052 RMK AO1
KBAM 111255Z AUTO 27003KT 10SM CLR M11/M12 A3052 RMK AO1
KBAM 111235Z AUTO 26003KT 10SM CLR M11/M13 A3052 RMK AO1
KBAM 111215Z AUTO 00000KT 10SM CLR M11/M14 A3052 RMK AO1
KBAM 111155Z AUTO 00000KT 10SM CLR M12/M15 A3052 RMK AO1
KBAM 111135Z AUTO 00000KT 10SM CLR M12/M14 A3052 RMK AO1
KBAM 111115Z AUTO 12003KT 10SM CLR M12/M14 A3053 RMK AO1
KBAM 111055Z AUTO 18003KT 10SM CLR M11/M13 A3052 RMK AO1
KBAM 111035Z AUTO 20004KT 10SM CLR M11/M13 A3052 RMK AO1
KBAM 111015Z AUTO 20004KT 10SM CLR M11/M13 A3052 RMK AO1
KBAM 110955Z AUTO 21003KT 10SM CLR M09/M10 A3052 RMK AO1
KBAM 110935Z AUTO 00000KT 10SM CLR M11/M12 A3052 RMK AO1
KBAM 110915Z AUTO 09004KT 10SM CLR M11/M13 A3052 RMK AO1
KBAM 110855Z AUTO 11003KT 10SM CLR M11/M13 A3052 RMK AO1
KBAM 110835Z AUTO 15005KT 10SM CLR M11/M12 A3052 RMK AO1
KBAM 110815Z AUTO 16003KT 10SM CLR M11/M13 A3052 RMK AO1
KBAM 110755Z AUTO 00000KT 10SM CLR M10/M12 A3053 RMK AO1
KBAM 110735Z AUTO 21004KT 10SM CLR M10/M11 A3052 RMK AO1
KBAM 110715Z AUTO 20004KT 10SM CLR M10/M11 A3052 RMK AO1
KBAM 110655Z AUTO 18003KT 10SM CLR M08/M10 A3052 RMK AO1
KBAM 110635Z AUTO 00000KT 10SM CLR M07/M10 A3052 RMK AO1
KBAM 110615Z AUTO 00000KT 10SM CLR M08/M11 A3052 RMK AO1
KBAM 110555Z AUTO 10003KT 10SM CLR M08/M10 A3052 RMK AO1
KBAM 110535Z AUTO 11003KT 10SM CLR M08/M11 A3052 RMK AO1
KBAM 110515Z AUTO 14003KT 10SM CLR M08/M10 A3052 RMK AO1
KBAM 110455Z AUTO 00000KT 10SM CLR M08/M10 A3051 RMK AO1
KBAM 110435Z AUTO 14003KT 10SM CLR M08/M10 A3051 RMK AO1
KBAM 110415Z AUTO 00000KT 10SM CLR M07/M09 A3050 RMK AO1
KBAM 110355Z AUTO 00000KT 10SM CLR M07/M10 A3050 RMK AO1
KBAM 110335Z AUTO 19004KT 10SM CLR M07/M09 A3049 RMK AO1
KBAM 110315Z AUTO 26003KT 10SM CLR M06/M08 A3050 RMK AO1
KBAM 110255Z AUTO 00000KT 10SM CLR M05/M08 A3050 RMK AO1
KBAM 110235Z AUTO 18003KT 10SM CLR M05/M07 A3050 RMK AO1
KBAM 110215Z AUTO 15005KT 10SM CLR M02/M06 A3050 RMK AO1